Thunder radar more information blitzortung!


Radar de pluja more information rain snow radar


Visita la nostra xarxa de llocs de meteo:

Template documentation
and downloads

And another site



No particular awareness of the weather is required.    There are no Weather-warnings

Pagina Historial Weather Underground text

Diari Resum Novembre 24, 2017 Unitats:  Mètric    Imperial   Tant
« Previous Dia
SegĂźent Dia »
Diari Setmana Mensual Anual Personalitzada
  Maxima: Minima: Media:
Temperatura: -17.8 °C -13.7 °C -9.3 °C
Punt de rosada: -17.8 °C -16.6 °C -15 °C
Humitat: Humidity % 41 % 51 %
Wind Speed: 0 km/h 0 km/h 5 km/h
RĂ fegues de vent: 0 km/h - -
Vent:- - SW
Pression baro: 0 hPa 34395 hPa -
Precipitacions: 0 mm    
Historical Graphs
 
 
Dades de taula per Novembre 24, 2017
Temps Temperatura Punt de rosada Pression baro Vent Wind Speed RĂ fegues de vent Humitat Rainfall Rate (Hourly)
-17.8 °C -17.8 °C 0 hPa Calm     Humidity % 0 mm
00:05 -13.7 °C -16.6 °C 34496.6 hPa WSW 5.1 km/h 7.7 km/h 69 % 0 mm
00:09 -12.7 °C -14.4 °C 34533.8 hPa WSW 6.3 km/h 6.3 km/h 81 % 0 mm
00:15 -13.5 °C -16.4 °C 34496.6 hPa WSW 5.1 km/h 7.7 km/h 69 % 0 mm
00:25 -13.6 °C -16.5 °C 34533.8 hPa WSW 5.1 km/h 7.7 km/h 69 % 0 mm
00:35 -13.4 °C -16.4 °C 34533.8 hPa Calm   2.6 km/h 69 % 0 mm
00:45 -13.1 °C -16.2 °C 34496.6 hPa North 2.6 km/h 5.1 km/h 68 % 0 mm
01:05 -12.8 °C -16.1 °C 34533.8 hPa North 2.6 km/h 2.6 km/h 66 % 0 mm
01:15 -12.8 °C -16.2 °C 34533.8 hPa Calm   5.1 km/h 65 % 0 mm
01:25 -12.8 °C -16.3 °C 34533.8 hPa West 2.6 km/h 2.6 km/h 65 % 0 mm
01:35 -12.9 °C -16.2 °C 34533.8 hPa WSW 2.6 km/h 2.6 km/h 66 % 0 mm
01:45 -12.8 °C -16.2 °C 34533.8 hPa Calm   5.1 km/h 65 % 0 mm
01:55 -12.8 °C -16.2 °C 34533.8 hPa NW 2.6 km/h 5.1 km/h 65 % 0 mm
02:05 -12.7 °C -16.2 °C 34533.8 hPa NW 2.6 km/h 5.1 km/h 65 % 0 mm
02:15 -12.7 °C -16.3 °C 34533.8 hPa Calm   2.6 km/h 64 % 0 mm
02:25 -12.7 °C -16.2 °C 34533.8 hPa NW 2.6 km/h 5.1 km/h 65 % 0 mm
02:35 -12.8 °C -16.2 °C 34533.8 hPa North 5.1 km/h 7.7 km/h 66 % 0 mm
02:45 -12.8 °C -16.2 °C 34533.8 hPa NNE 2.6 km/h 5.1 km/h 66 % 0 mm
02:55 -12.8 °C -16.2 °C 34496.6 hPa Calm   5.1 km/h 66 % 0 mm
03:05 -12.8 °C -16.2 °C 34496.6 hPa NW 2.6 km/h 5.1 km/h 66 % 0 mm
03:25 -12.8 °C -16 °C 34567.7 hPa SW 2.6 km/h 7.7 km/h 67 % 0 mm
03:35 -12.6 °C -15.9 °C 34567.7 hPa SW 2.6 km/h 2.6 km/h 66 % 0 mm
03:45 -12.3 °C -15.8 °C 34567.7 hPa Calm     65 % 0 mm
03:55 -12.1 °C -15.7 °C 34533.8 hPa NNW 2.6 km/h 7.7 km/h 64 % 0 mm
04:05 -11.9 °C -15.7 °C 34533.8 hPa NNE 2.6 km/h 2.6 km/h 63 % 0 mm
04:15 -11.7 °C -15.4 °C 34567.7 hPa NNW 2.6 km/h 5.1 km/h 63 % 0 mm
04:35 -11.2 °C -14.9 °C 34567.7 hPa NNW 2.6 km/h 5.1 km/h 64 % 0 mm
10:38 -11.1 °C -14.7 °C 34567.7 hPa Calm   3.7 km/h 64 % 0 mm
10:39 -10.9 °C -14.6 °C 34567.7 hPa Calm   4.2 km/h 64 % 0 mm
10:44 -10.9 °C -14.6 °C 34567.7 hPa SW 6 km/h 6 km/h 64 % 0 mm
10:49 -10.8 °C -14.6 °C 34567.7 hPa SW 6 km/h   63 % 0 mm
10:54 -10.6 °C -14.4 °C 34567.7 hPa SW 6 km/h 6 km/h 63 % 0 mm
10:59 -10.6 °C -14.3 °C 34567.7 hPa SW 3.7 km/h 3.7 km/h 64 % 0 mm
11:04 -10.4 °C -14.1 °C 34567.7 hPa SW 4.2 km/h 4.2 km/h 64 % 0 mm
11:09 -10.3 °C -14.1 °C 34567.7 hPa Calm     63 % 0 mm
11:14 -10.3 °C -14.1 °C 34567.7 hPa Calm     63 % 0 mm
11:19 -10.3 °C -14.3 °C 34567.7 hPa Calm     62 % 0 mm
11:24 -9.9 °C -13.8 °C 34567.7 hPa West 3.1 km/h 3.1 km/h 63 % 0 mm
11:29 -9.7 °C -13.6 °C 34567.7 hPa NNE 3.1 km/h 3.1 km/h 63 % 0 mm
11:34 -9.6 °C -13.7 °C 34567.7 hPa NNW 3.1 km/h 3.1 km/h 61 % 0 mm
11:39 -9.3 °C -13.6 °C 34567.7 hPa West 3.1 km/h   60 % 0 mm
11:44 -9.2 °C -13.4 °C 34567.7 hPa SW 3.1 km/h   60 % 0 mm
11:49 -8.9 °C -13.4 °C 34567.7 hPa SW 3.1 km/h 3.1 km/h 59 % 0 mm
11:54 -8.8 °C -13.4 °C 34567.7 hPa South 6 km/h 6 km/h 58 % 0 mm
11:59 -8.7 °C -13.3 °C 34567.7 hPa SE 6 km/h 6 km/h 58 % 0 mm
12:04 -8.8 °C -13.5 °C 34533.8 hPa ESE 5.1 km/h 5.1 km/h 57 % 0 mm
12:09 -8.6 °C -13.3 °C 34533.8 hPa SSE 6 km/h 6 km/h 57 % 0 mm
12:14 -8.6 °C -13.7 °C 34533.8 hPa SE 9 km/h 9 km/h 55 % 0 mm
12:19 -8.6 °C -13.4 °C 34533.8 hPa ENE 9 km/h 9 km/h 56 % 0 mm
12:24 -8.3 °C -13.2 °C 34533.8 hPa SW 6 km/h 6 km/h 56 % 0 mm
12:29 -8.2 °C -13.1 °C 34533.8 hPa SW 9 km/h 9 km/h 56 % 0 mm
12:34 -7.9 °C -13 °C 34496.6 hPa South 6 km/h 6 km/h 55 % 0 mm
12:39 -7.8 °C -12.9 °C 34496.6 hPa SSE 6 km/h 6 km/h 55 % 0 mm
12:44 -7.6 °C -12.7 °C 34496.6 hPa ESE 6 km/h 6 km/h 55 % 0 mm
12:49 -7.4 °C -12.9 °C 34533.8 hPa SE 8 km/h 8 km/h 53 % 0 mm
12:54 -7.7 °C -13.1 °C 34533.8 hPa ENE 9 km/h 9 km/h 53 % 0 mm
12:59 -7.6 °C -13 °C 34533.8 hPa SE 9 km/h 9 km/h 53 % 0 mm
13:04 -7.7 °C -13.1 °C 34496.6 hPa NE 8.5 km/h 8.5 km/h 53 % 0 mm
13:09 -7.7 °C -13.1 °C 34496.6 hPa ENE 11.9 km/h 11.9 km/h 53 % 0 mm
13:14 -7.6 °C -12.9 °C 34496.6 hPa ENE 9 km/h 9 km/h 53 % 0 mm
13:19 -7.4 °C -12.8 °C 34533.8 hPa ENE 6.8 km/h 6.8 km/h 53 % 0 mm
13:24 -7.3 °C -12.9 °C 34533.8 hPa SE 6.8 km/h 6.8 km/h 52 % 0 mm
13:29 -7.2 °C -12.9 °C 34533.8 hPa ESE 6 km/h 6 km/h 51 % 0 mm
13:34 -7.1 °C -13.1 °C 34496.6 hPa East 9 km/h 9 km/h 50 % 0 mm
13:39 -7 °C -13.1 °C 34496.6 hPa East 9.3 km/h 9.3 km/h 49 % 0 mm
13:44 -6.9 °C -12.9 °C 34496.6 hPa ENE 6.3 km/h 6.3 km/h 50 % 0 mm
13:49 -6.9 °C -13 °C 34496.6 hPa ESE 10.3 km/h 10.3 km/h 49 % 0 mm
13:54 -6.9 °C -13 °C 34496.6 hPa ESE 9 km/h 9 km/h 49 % 0 mm
13:59 -6.8 °C -12.9 °C 34496.6 hPa ESE 6 km/h 6 km/h 49 % 0 mm
14:04 -6.7 °C -12.8 °C 34496.6 hPa NE 3.1 km/h   49 % 0 mm
14:09 -6.7 °C -12.6 °C 34496.6 hPa WNW 9 km/h 9 km/h 50 % 0 mm
14:14 -6.6 °C -12.7 °C 34496.6 hPa NNW 6 km/h 6 km/h 49 % 0 mm
14:19 -6.4 °C -12.8 °C 34496.6 hPa SW 9 km/h 9 km/h 48 % 0 mm
14:29 -6.3 °C -12.8 °C 34496.6 hPa WNW 11.9 km/h 11.9 km/h 47 % 0 mm
14:34 -6.2 °C -12.9 °C 34496.6 hPa SW 9 km/h 9 km/h 46 % 0 mm
14:39 -6.1 °C -13 °C 34496.6 hPa WNW 9 km/h 9.3 km/h 45 % 0 mm
14:44 -6.1 °C -12.9 °C 34496.6 hPa SW 9 km/h 9 km/h 45 % 0 mm
14:49 -5.9 °C -13 °C 34496.6 hPa SE 9.3 km/h 9.3 km/h 44 % 0 mm
14:54 -5.8 °C -13.1 °C 34496.6 hPa NNW 9 km/h 9 km/h 43 % 0 mm
14:59 -5.8 °C -13.1 °C 34496.6 hPa NNW 15 km/h 15 km/h 43 % 0 mm
15:04 -5.7 °C -13 °C 34496.6 hPa West 17.9 km/h 17.9 km/h 43 % 0 mm
15:09 -5.9 °C -13.4 °C 34496.6 hPa WNW 8.5 km/h 8.5 km/h 42 % 0 mm
15:14 -6.1 °C -13.5 °C 34496.6 hPa West 11.9 km/h 11.9 km/h 42 % 0 mm
15:19 -6.1 °C -13.8 °C 34496.6 hPa NW 7.6 km/h 7.6 km/h 41 % 0 mm
15:24 -6.2 °C -13.6 °C 34496.6 hPa NW 6 km/h 6 km/h 42 % 0 mm
15:29 -6.2 °C -13.6 °C 34496.6 hPa West 6 km/h 6 km/h 42 % 0 mm
15:34 -6.2 °C -13.8 °C 34496.6 hPa SW 6 km/h 6 km/h 41 % 0 mm
15:39 -6.3 °C -13.7 °C 34496.6 hPa West 9 km/h 9 km/h 42 % 0 mm
15:44 -6.3 °C -13.9 °C 34496.6 hPa WNW 6 km/h 6 km/h 41 % 0 mm
15:49 -6.4 °C -13.8 °C 34496.6 hPa WSW 9 km/h 9 km/h 42 % 0 mm
15:54 -6.4 °C -14.1 °C 34496.6 hPa WNW 6 km/h 6 km/h 41 % 0 mm
15:59 -6.6 °C -14.2 °C 34496.6 hPa WNW 9 km/h 9 km/h 41 % 0 mm
16:04 -6.7 °C -14.3 °C 34496.6 hPa West 9 km/h 9 km/h 41 % 0 mm
16:09 -6.7 °C -14.3 °C 34496.6 hPa West 9 km/h 9 km/h 41 % 0 mm
16:14 -6.8 °C -14.2 °C 34496.6 hPa WSW 11.9 km/h 11.9 km/h 42 % 0 mm
16:19 -6.8 °C -14.2 °C 34496.6 hPa West 11.9 km/h 11.9 km/h 42 % 0 mm
16:24 -6.9 °C -14.3 °C 34496.6 hPa SW 6.8 km/h 6.8 km/h 42 % 0 mm
16:29 -6.9 °C -14.3 °C 34496.6 hPa West 6.8 km/h 6.8 km/h 42 % 0 mm
16:34 -6.9 °C -14.3 °C 34496.6 hPa West 6 km/h 6 km/h 42 % 0 mm
16:39 -6.9 °C -14.3 °C 34496.6 hPa WNW 9 km/h 9 km/h 42 % 0 mm
16:44 -6.8 °C -14.2 °C 34496.6 hPa WSW 16.1 km/h 16.1 km/h 42 % 0 mm
16:49 -6.9 °C -14.3 °C 34496.6 hPa West 9 km/h 9 km/h 42 % 0 mm
16:54 -7 °C -14.3 °C 34496.6 hPa West 8.5 km/h 8.5 km/h 42 % 0 mm
17:00 -7.1 °C -14.4 °C 34496.6 hPa WSW 11.9 km/h 11.9 km/h 42 % 0 mm
17:04 -7.1 °C -14.5 °C 34496.6 hPa West 6 km/h 6 km/h 42 % 0 mm
17:09 -7.2 °C -14.5 °C 34496.6 hPa West 6 km/h 6 km/h 42 % 0 mm
17:14 -7.3 °C -14.6 °C 34496.6 hPa West 6 km/h 6 km/h 42 % 0 mm
17:15 -7.3 °C -14.6 °C 34496.6 hPa West 6 km/h 6 km/h 42 % 0 mm
17:20 -7.3 °C -14.4 °C 34496.6 hPa WSW 9 km/h 9 km/h 43 % 0 mm
17:25 -7.4 °C -14.7 °C 34496.6 hPa West 3.1 km/h   42 % 0 mm
17:30 -7.4 °C -14.8 °C 34496.6 hPa West 2.3 km/h 4.2 km/h 42 % 0 mm
17:35 -7.6 °C -14.7 °C 34496.6 hPa NW 6 km/h 6 km/h 43 % 0 mm
17:40 -7.7 °C -14.9 °C 34496.6 hPa NW 3.1 km/h   42 % 0 mm
17:45 -7.7 °C -15 °C 34496.6 hPa WNW 3.1 km/h   42 % 0 mm
17:47 -7.8 °C -15.1 °C 34496.6 hPa West 3.1 km/h 3.1 km/h 42 % 0 mm
17:52 -7.8 °C -14.9 °C 34496.6 hPa WNW 6 km/h 6 km/h 43 % 0 mm
17:57 -7.9 °C -14.9 °C 34496.6 hPa Calm     43 % 0 mm
18:02 -7.9 °C -15.1 °C 34496.6 hPa WSW 6.3 km/h   43 % 0 mm
18:07 -8 °C -15.1 °C 34496.6 hPa Calm     43 % 0 mm
18:10 -10.6 °C -16.1 °C 34496.6 hPa Calm   5.1 km/h 51 % 0 mm
18:12 -8 °C -15.1 °C 34496.6 hPa West 3.1 km/h   43 % 0 mm
18:17 -7.9 °C -15.1 °C 34496.6 hPa SW 6 km/h 6 km/h 43 % 0 mm
18:20 -10.7 °C -16.2 °C 34462.7 hPa Calm   5.1 km/h 51 % 0 mm
18:22 -8 °C -15.1 °C 34496.6 hPa WSW 3.1 km/h 3.1 km/h 43 % 0 mm
18:27 -8 °C -15.1 °C 34496.6 hPa WSW 9 km/h 9 km/h 43 % 0 mm
18:30 -10.8 °C -16.1 °C 34462.7 hPa Calm   5.1 km/h 52 % 0 mm
18:32 -8.1 °C -15.1 °C 34496.6 hPa West 3.1 km/h   43 % 0 mm
18:37 -8.3 °C -15.3 °C 34496.6 hPa WSW 6 km/h 6 km/h 43 % 0 mm
18:40 -10.7 °C -16.1 °C 34496.6 hPa Calm   5.1 km/h 52 % 0 mm
18:42 -8.4 °C -15.3 °C 34496.6 hPa WSW 6 km/h 6 km/h 44 % 0 mm
18:47 -8.6 °C -15.4 °C 34496.6 hPa SW 10.3 km/h 10.3 km/h 44 % 0 mm
18:48 -8.6 °C -15.4 °C 34496.6 hPa WSW 11.9 km/h 11.9 km/h 44 % 0 mm
18:50 -10.7 °C -16 °C 34462.7 hPa Calm   2.6 km/h 52 % 0 mm
18:53 -8.6 °C -15.3 °C 34496.6 hPa SW 8.5 km/h 8.5 km/h 45 % 0 mm
18:58 -8.6 °C -15.3 °C 34496.6 hPa WSW 6 km/h 6 km/h 45 % 0 mm
19:00 -10.7 °C -16.1 °C 34462.7 hPa Calm     52 % 0 mm
19:03 -8.6 °C -15.3 °C 34496.6 hPa West 6.3 km/h 6.3 km/h 45 % 0 mm
19:08 -8.6 °C -15.3 °C 34496.6 hPa West 3.1 km/h 3.1 km/h 45 % 0 mm
19:10 -10.8 °C -16.1 °C 34462.7 hPa NE 2.6 km/h 2.6 km/h 52 % 0 mm
19:13 -8.7 °C -15.3 °C 34496.6 hPa WNW 3.1 km/h   45 % 0 mm
19:18 -8.7 °C -15.4 °C 34496.6 hPa Calm     45 % 0 mm
19:20 -10.7 °C -15.9 °C 34462.7 hPa Calm   5.1 km/h 53 % 0 mm
19:23 -8.8 °C -15.4 °C 34496.6 hPa West 3.1 km/h   45 % 0 mm
19:28 -8.8 °C -15.4 °C 34496.6 hPa West 6 km/h 6 km/h 45 % 0 mm
19:30 -10.7 °C -15.9 °C 34462.7 hPa Calm   5.1 km/h 53 % 0 mm
19:33 -8.9 °C -15.5 °C 34496.6 hPa SW 6.3 km/h 6.3 km/h 45 % 0 mm
19:38 -9.1 °C -15.7 °C 34496.6 hPa SW 8 km/h 8 km/h 45 % 0 mm
19:40 -10.7 °C -15.9 °C 34428.8 hPa Calm   5.1 km/h 53 % 0 mm
19:43 -9.3 °C -15.9 °C 34496.6 hPa SW 9.3 km/h 9.3 km/h 45 % 0 mm
19:48 -9.3 °C -15.7 °C 34533.8 hPa West 6 km/h 6.8 km/h 46 % 0 mm
19:50 -10.7 °C -15.9 °C 34428.8 hPa Calm   2.6 km/h 53 % 0 mm
19:53 -9 °C -15.4 °C 34533.8 hPa West 9 km/h 9 km/h 46 % 0 mm
19:58 -8.9 °C -15.3 °C 34533.8 hPa West 6.8 km/h 6.8 km/h 46 % 0 mm
20:00 -10.8 °C -15.9 °C 34428.8 hPa NW 2.6 km/h 5.1 km/h 53 % 0 mm
20:03 -8.8 °C -15.3 °C 34533.8 hPa West 6 km/h 6.3 km/h 46 % 0 mm
20:08 -8.8 °C -15.3 °C 34533.8 hPa West 6.3 km/h 6.3 km/h 46 % 0 mm
20:10 -10.8 °C -15.9 °C 34428.8 hPa Calm   2.6 km/h 53 % 0 mm
20:13 -8.8 °C -15.2 °C 34533.8 hPa WSW 9 km/h 9 km/h 46 % 0 mm
20:18 -8.8 °C -15.2 °C 34533.8 hPa West 9 km/h 9 km/h 46 % 0 mm
20:20 -11 °C -16.2 °C 34462.7 hPa NW 2.6 km/h 5.1 km/h 53 % 0 mm
20:23 -8.7 °C -15.2 °C 34533.8 hPa WSW 9 km/h 9 km/h 46 % 0 mm
20:28 -8.7 °C -15.2 °C 34533.8 hPa West 11.9 km/h 11.9 km/h 46 % 0 mm
20:30 -11 °C -16.2 °C 34462.7 hPa West 2.6 km/h 5.1 km/h 53 % 0 mm
20:33 -8.7 °C -15.2 °C 34496.6 hPa WSW 9 km/h 9 km/h 46 % 0 mm
20:38 -8.8 °C -15.2 °C 34496.6 hPa West 11.9 km/h 11.9 km/h 46 % 0 mm
20:40 -11 °C -16.2 °C 34462.7 hPa WNW 2.6 km/h 2.6 km/h 53 % 0 mm
20:43 -8.7 °C -15.2 °C 34496.6 hPa West 11.9 km/h 11.9 km/h 46 % 0 mm
20:48 -8.8 °C -15.2 °C 34533.8 hPa West 9 km/h 9 km/h 46 % 0 mm
20:50 -11.3 °C -16.3 °C 34462.7 hPa WNW 2.6 km/h 5.1 km/h 54 % 0 mm
20:53 -8.8 °C -15.3 °C 34533.8 hPa West 9 km/h 9 km/h 46 % 0 mm
20:58 -8.9 °C -15.4 °C 34533.8 hPa SW 6 km/h 6 km/h 46 % 0 mm
21:00 -11.3 °C -16.3 °C 34462.7 hPa Calm   2.6 km/h 54 % 0 mm
21:03 -9 °C -15.4 °C 34533.8 hPa WSW 9 km/h 9 km/h 46 % 0 mm
21:08 -9.1 °C -15.5 °C 34533.8 hPa WSW 9 km/h 9 km/h 46 % 0 mm
21:10 -11.3 °C -16.2 °C 34462.7 hPa Calm     55 % 0 mm
21:13 -9.1 °C -15.5 °C 34533.8 hPa West 8.5 km/h 8.5 km/h 46 % 0 mm
21:19 -9.1 °C -15.5 °C 34533.8 hPa SW 6 km/h 6 km/h 46 % 0 mm
21:20 -11.3 °C -16.2 °C 34462.7 hPa WSW 2.6 km/h 5.1 km/h 55 % 0 mm
21:24 -9 °C -15.4 °C 34533.8 hPa West 6 km/h 6 km/h 46 % 0 mm
21:29 -9.3 °C -15.7 °C 34533.8 hPa SW 9 km/h 9 km/h 46 % 0 mm
21:30 -11.5 °C -16.3 °C 34462.7 hPa Calm   5.1 km/h 55 % 0 mm
21:34 -9.5 °C -15.9 °C 34533.8 hPa WSW 6 km/h 6 km/h 46 % 0 mm
21:39 -9.5 °C -15.9 °C 34533.8 hPa WSW 6 km/h 6 km/h 46 % 0 mm
21:40 -11.6 °C -16.3 °C 34462.7 hPa NE 2.6 km/h 5.1 km/h 56 % 0 mm
21:44 -9.5 °C -15.9 °C 34533.8 hPa SW 6 km/h 6 km/h 46 % 0 mm
21:49 -9.5 °C -15.9 °C 34533.8 hPa SW 6 km/h 6 km/h 46 % 0 mm
21:50 -11.7 °C -16.4 °C 34428.8 hPa Calm   2.6 km/h 56 % 0 mm
21:54 -9.6 °C -15.8 °C 34533.8 hPa Calm     47 % 0 mm
21:59 -9.7 °C -15.9 °C 34533.8 hPa Calm     47 % 0 mm
22:00 -11.8 °C -16.4 °C 34428.8 hPa Calm     57 % 0 mm
22:04 -9.7 °C -15.9 °C 34533.8 hPa SW 6 km/h 6 km/h 47 % 0 mm
22:09 -9.6 °C -15.8 °C 34533.8 hPa WSW 6 km/h 6 km/h 47 % 0 mm
22:10 -11.9 °C -16.3 °C 34428.8 hPa Calm   2.6 km/h 58 % 0 mm
22:14 -9.7 °C -15.9 °C 34533.8 hPa Calm     47 % 0 mm
22:19 -9.6 °C -15.8 °C 34533.8 hPa West 3.1 km/h 3.7 km/h 47 % 0 mm
22:20 -12 °C -16.3 °C 34428.8 hPa North 2.6 km/h 2.6 km/h 59 % 0 mm
22:24 -9.4 °C -15.7 °C 34533.8 hPa WSW 6.3 km/h 6.3 km/h 47 % 0 mm
22:29 -9.3 °C -15.5 °C 34533.8 hPa WSW 6 km/h 6.3 km/h 47 % 0 mm
22:30 -12.2 °C -16.5 °C 34428.8 hPa Calm   5.1 km/h 59 % 0 mm
22:34 -9.3 °C -15.6 °C 34533.8 hPa WSW 4.2 km/h 4.2 km/h 47 % 0 mm
22:39 -9.4 °C -15.7 °C 34533.8 hPa Calm     47 % 0 mm
22:40 -12.3 °C -16.4 °C 34428.8 hPa Calm     60 % 0 mm
22:44 -9.5 °C -15.7 °C 34533.8 hPa West 3.7 km/h   47 % 0 mm
22:49 -9.7 °C -15.7 °C 34496.6 hPa Calm     48 % 0 mm
22:50 -12.4 °C -16.6 °C 34428.8 hPa Calm     60 % 0 mm
22:54 -9.8 °C -15.9 °C 34496.6 hPa Calm     48 % 0 mm
22:59 -10 °C -16 °C 34496.6 hPa Calm     48 % 0 mm
23:00 -12.3 °C -16.4 °C 34428.8 hPa SSW 2.6 km/h 2.6 km/h 60 % 0 mm
23:04 -10.2 °C -16.2 °C 34496.6 hPa NNW 6 km/h 6 km/h 48 % 0 mm
23:09 -10.3 °C -16.2 °C 34496.6 hPa NNW 6 km/h 6 km/h 49 % 0 mm
23:10 -12.4 °C -16.4 °C 34428.8 hPa Calm   2.6 km/h 61 % 0 mm
23:14 -10.2 °C -16 °C 34496.6 hPa NNW 3.1 km/h 3.1 km/h 49 % 0 mm
23:19 -10.1 °C -15.9 °C 34496.6 hPa West 6 km/h 6 km/h 49 % 0 mm
23:20 -12.3 °C -16.2 °C 34428.8 hPa Calm   2.6 km/h 62 % 0 mm
23:24 -10.3 °C -16.2 °C 34496.6 hPa WSW 6 km/h 6 km/h 49 % 0 mm
23:29 -10.4 °C -16.3 °C 34496.6 hPa NNW 6 km/h 6 km/h 49 % 0 mm
23:30 -12.4 °C -16.3 °C 34428.8 hPa NW 2.6 km/h 5.1 km/h 62 % 0 mm
23:34 -10.4 °C -16.1 °C 34496.6 hPa NNW 3.1 km/h 3.1 km/h 50 % 0 mm
23:39 -10.5 °C -16.2 °C 34496.6 hPa Calm     50 % 0 mm
23:40 -12.4 °C -16.3 °C 34395 hPa ENE 5.1 km/h 5.1 km/h 62 % 0 mm
23:44 -10.4 °C -16.1 °C 34496.6 hPa Calm     50 % 0 mm
23:49 -10.4 °C -16.1 °C 34496.6 hPa Calm     50 % 0 mm
23:50 -12.4 °C -16.2 °C 34395 hPa Calm   2.6 km/h 63 % 0 mm
23:54 -10.4 °C -16.1 °C 34496.6 hPa Calm     50 % 0 mm
Meteo Sesrovires
Elogis d' Weather Underground - 1.5 mb

Guio original per  Jim McMurry - jmcmurry@mwt.net Adaptat per a la plantilla per  Wim van der Kuil - Leuven-Template.eu

Trobareu la nostra informacio del temps tambe a:

Weather Underground

AWEKAS